createdAt,value
2022-10-29T00:00:58.065Z,8.70
2022-10-29T00:03:27.055Z,8.60
2022-10-29T00:06:01.073Z,8.60
2022-10-29T00:08:30.066Z,8.60
2022-10-29T00:11:07.521Z,8.60
2022-10-29T00:13:36.382Z,8.60
2022-10-29T00:16:06.881Z,8.60
2022-10-29T00:18:34.877Z,8.60
2022-10-29T00:21:05.538Z,8.60
2022-10-29T00:23:33.868Z,8.60
2022-10-29T00:26:02.969Z,8.60
2022-10-29T00:28:31.347Z,8.60
2022-10-29T00:31:04.267Z,8.70
2022-10-29T00:33:32.493Z,8.60
2022-10-29T00:36:02.015Z,8.60
2022-10-29T00:38:31.751Z,8.60
2022-10-29T00:41:00.175Z,8.60
2022-10-29T00:43:28.951Z,8.60
2022-10-29T00:46:00.740Z,8.60
2022-10-29T00:48:31.091Z,8.60
2022-10-29T00:50:59.785Z,8.60
2022-10-29T00:53:34.391Z,8.60
2022-10-29T00:56:03.039Z,8.60
2022-10-29T00:58:31.170Z,8.70
2022-10-29T01:00:59.344Z,8.70
2022-10-29T01:03:27.574Z,8.60
2022-10-29T01:05:55.919Z,8.70
2022-10-29T01:08:24.615Z,8.70
2022-10-29T01:11:03.922Z,8.70
2022-10-29T01:13:44.034Z,8.60
2022-10-29T01:16:20.386Z,8.70
2022-10-29T01:18:55.823Z,8.60
2022-10-29T01:21:42.603Z,8.60
2022-10-29T01:24:47.983Z,8.60
2022-10-29T01:27:48.587Z,8.60
2022-10-29T01:30:22.925Z,8.60
2022-10-29T01:33:07.284Z,8.60
2022-10-29T01:35:46.370Z,8.60
2022-10-29T01:38:29.618Z,8.60
2022-10-29T01:41:03.068Z,8.50
2022-10-29T01:43:37.474Z,8.50
2022-10-29T01:46:11.033Z,8.50
2022-10-29T01:48:45.225Z,8.50
2022-10-29T01:51:20.107Z,8.50
2022-10-29T01:53:48.634Z,8.50
2022-10-29T01:56:16.832Z,8.40
2022-10-29T01:58:55.027Z,8.50
2022-10-29T02:01:42.885Z,8.50
2022-10-29T02:04:36.533Z,8.50
2022-10-29T02:07:13.114Z,8.50
2022-10-29T02:09:49.999Z,8.50
2022-10-29T02:12:23.931Z,8.50
2022-10-29T02:14:55.963Z,8.50
2022-10-29T02:17:24.397Z,8.50
2022-10-29T02:19:53.806Z,8.50
2022-10-29T02:22:21.843Z,8.50
2022-10-29T02:24:49.907Z,8.60
2022-10-29T02:27:17.999Z,8.50
2022-10-29T02:29:46.209Z,8.50
2022-10-29T02:32:14.246Z,8.60
2022-10-29T02:34:42.303Z,8.50
2022-10-29T02:37:11.659Z,8.60
2022-10-29T02:39:39.651Z,8.60
2022-10-29T02:42:07.691Z,8.60
2022-10-29T02:44:35.710Z,8.60
2022-10-29T02:47:03.719Z,8.60
2022-10-29T02:49:31.685Z,8.60
2022-10-29T02:51:59.667Z,8.60
2022-10-29T02:54:29.047Z,8.60
2022-10-29T02:56:57.079Z,8.60
2022-10-29T02:59:25.132Z,8.60
2022-10-29T03:01:53.252Z,8.60
2022-10-29T03:04:21.979Z,8.60
2022-10-29T03:06:49.950Z,8.60
2022-10-29T03:09:17.958Z,8.60
2022-10-29T03:11:47.291Z,8.70
2022-10-29T03:14:15.281Z,8.70
2022-10-29T03:16:43.395Z,8.70
2022-10-29T03:19:11.475Z,8.70
2022-10-29T03:21:39.451Z,8.70
2022-10-29T03:24:08.046Z,8.70
2022-10-29T03:26:36.011Z,8.70
2022-10-29T03:29:05.500Z,8.60
2022-10-29T03:31:33.378Z,8.60
2022-10-29T03:34:01.421Z,8.60
2022-10-29T03:36:29.426Z,8.60
2022-10-29T03:38:57.437Z,8.60
2022-10-29T03:41:25.525Z,8.60
2022-10-29T03:43:53.554Z,8.60
2022-10-29T03:46:22.938Z,8.60
2022-10-29T03:48:51.259Z,8.50
2022-10-29T03:51:19.238Z,8.50
2022-10-29T03:53:47.258Z,8.50
2022-10-29T03:56:15.261Z,8.50
2022-10-29T03:58:43.257Z,8.50
2022-10-29T04:01:11.873Z,8.50
2022-10-29T04:03:42.336Z,8.50
2022-10-29T04:06:12.322Z,8.50
2022-10-29T04:08:40.331Z,8.50
2022-10-29T04:11:09.836Z,8.40
2022-10-29T04:13:37.645Z,8.50
2022-10-29T04:16:06.027Z,8.40
2022-10-29T04:18:34.050Z,8.40
2022-10-29T04:29:31.744Z,8.30
2022-10-29T04:31:59.758Z,8.30
2022-10-29T04:34:27.709Z,8.30
2022-10-29T04:36:57.118Z,8.30
2022-10-29T04:39:25.411Z,8.20
2022-10-29T04:41:53.406Z,8.20
2022-10-29T04:44:21.753Z,8.20
2022-10-29T04:46:49.736Z,8.20
2022-10-29T04:49:19.288Z,8.10
2022-10-29T04:51:47.142Z,8.20
2022-10-29T04:54:16.621Z,8.10
2022-10-29T04:56:44.899Z,8.10
2022-10-29T04:59:12.829Z,8.10
2022-10-29T05:01:40.656Z,8.00
2022-10-29T05:04:08.509Z,8.10
2022-10-29T05:06:36.335Z,8.00
2022-10-29T05:09:04.281Z,8.00
2022-10-29T05:11:33.431Z,8.10
2022-10-29T05:14:01.291Z,8.00
2022-10-29T05:16:29.115Z,8.00
2022-10-29T05:18:56.906Z,8.00
2022-10-29T05:21:24.715Z,8.00
2022-10-29T05:23:52.512Z,8.00
2022-10-29T05:26:20.373Z,8.00
2022-10-29T05:28:51.545Z,8.00
2022-10-29T05:31:19.451Z,8.00
2022-10-29T05:33:49.897Z,8.00
2022-10-29T05:36:20.255Z,8.00
2022-10-29T05:38:48.054Z,8.00
2022-10-29T05:41:16.367Z,8.00
2022-10-29T05:43:44.123Z,8.00
2022-10-29T05:46:13.267Z,8.00
2022-10-29T05:48:41.072Z,8.00
2022-10-29T05:51:08.919Z,8.00
2022-10-29T05:53:36.849Z,8.00
2022-10-29T05:56:05.010Z,8.00
2022-10-29T05:58:32.799Z,8.00
2022-10-29T06:01:00.598Z,8.00
2022-10-29T06:03:29.799Z,8.00
2022-10-29T06:05:57.604Z,8.00
2022-10-29T06:08:25.525Z,8.10
2022-10-29T06:10:53.301Z,8.10
2022-10-29T06:13:22.319Z,8.20
2022-10-29T06:15:50.617Z,8.20
2022-10-29T06:18:18.851Z,8.20
2022-10-29T06:20:48.011Z,8.30
2022-10-29T06:23:15.806Z,8.30
2022-10-29T06:25:43.712Z,8.40
2022-10-29T06:28:15.039Z,8.40
2022-10-29T06:30:46.709Z,8.40
2022-10-29T06:33:14.542Z,8.40
2022-10-29T06:35:42.357Z,8.50
2022-10-29T06:38:12.597Z,8.50
2022-10-29T06:40:40.841Z,8.50
2022-10-29T06:43:10.139Z,8.60
2022-10-29T06:45:38.052Z,8.60
2022-10-29T06:48:06.284Z,8.60
2022-10-29T06:50:34.159Z,8.70
2022-10-29T06:53:02.878Z,8.70
2022-10-29T06:55:32.147Z,8.70
2022-10-29T06:58:01.080Z,8.80
2022-10-29T07:00:29.305Z,8.80
2022-10-29T07:02:57.812Z,8.90
2022-10-29T07:05:26.114Z,9.00
2022-10-29T07:07:55.865Z,9.00
2022-10-29T07:10:24.064Z,9.00
2022-10-29T07:12:53.307Z,9.10
2022-10-29T07:15:23.043Z,9.10
2022-10-29T07:17:55.900Z,9.20
2022-10-29T07:20:24.029Z,9.30
2022-10-29T07:22:51.810Z,9.30
2022-10-29T07:25:19.949Z,9.30
2022-10-29T07:27:49.099Z,9.40
2022-10-29T07:30:18.419Z,9.50
2022-10-29T07:32:46.276Z,9.60
2022-10-29T07:35:15.398Z,9.70
2022-10-29T07:37:43.228Z,9.70
2022-10-29T07:40:11.629Z,9.90
2022-10-29T07:42:39.485Z,10.00
2022-10-29T07:45:07.703Z,10.00
2022-10-29T07:47:36.858Z,10.10
2022-10-29T07:50:05.154Z,10.20
2022-10-29T07:52:32.964Z,10.30
2022-10-29T07:55:02.683Z,10.40
2022-10-29T07:57:30.586Z,10.50
2022-10-29T07:59:58.346Z,10.60
2022-10-29T08:02:26.315Z,10.70
2022-10-29T08:04:55.470Z,10.80
2022-10-29T08:07:23.269Z,10.80
2022-10-29T08:09:51.048Z,10.90
2022-10-29T08:12:18.860Z,11.00
2022-10-29T08:14:46.689Z,11.10
2022-10-29T08:17:14.712Z,11.20
2022-10-29T08:19:42.591Z,11.30
2022-10-29T08:22:11.775Z,11.50
2022-10-29T08:24:39.639Z,11.60
2022-10-29T08:27:07.450Z,11.80
2022-10-29T08:29:35.230Z,12.00
2022-10-29T08:32:03.038Z,12.10
2022-10-29T08:34:30.876Z,12.30
2022-10-29T08:36:58.658Z,12.50
2022-10-29T08:39:27.783Z,12.60
2022-10-29T08:41:59.643Z,12.80
2022-10-29T08:44:47.401Z,12.90
2022-10-29T08:47:16.550Z,13.10
2022-10-29T08:49:46.248Z,13.30
2022-10-29T08:52:19.811Z,13.60
2022-10-29T08:54:52.495Z,13.80
2022-10-29T08:57:22.032Z,14.00
2022-10-29T08:59:55.796Z,14.20
2022-10-29T09:02:23.648Z,14.30
2022-10-29T09:04:51.486Z,14.60
2022-10-29T09:07:24.605Z,14.70
2022-10-29T09:09:57.791Z,15.00
2022-10-29T09:12:40.629Z,15.20
2022-10-29T09:15:19.167Z,15.40
2022-10-29T09:17:51.665Z,15.70
2022-10-29T09:20:24.271Z,16.00
2022-10-29T09:22:56.122Z,16.20
2022-10-29T09:25:28.770Z,16.60
2022-10-29T09:28:02.435Z,16.80
2022-10-29T09:30:31.232Z,17.10
2022-10-29T09:33:00.984Z,17.30
2022-10-29T09:35:36.039Z,17.50
2022-10-29T09:38:08.863Z,17.70
2022-10-29T09:40:39.417Z,17.90
2022-10-29T09:43:09.396Z,17.90
2022-10-29T09:45:42.734Z,17.90
2022-10-29T09:48:12.802Z,17.90
2022-10-29T09:50:46.873Z,17.80
2022-10-29T09:53:14.819Z,17.70
2022-10-29T09:55:45.061Z,17.70
2022-10-29T09:58:19.395Z,17.60
2022-10-29T10:00:47.511Z,17.50
2022-10-29T10:03:17.378Z,17.50
2022-10-29T10:05:58.499Z,17.40
2022-10-29T10:08:26.384Z,17.40
2022-10-29T10:10:56.000Z,17.40
2022-10-29T10:13:27.386Z,17.40
2022-10-29T10:15:56.876Z,17.50
2022-10-29T10:18:25.419Z,17.60
2022-10-29T10:21:03.851Z,17.70
2022-10-29T10:23:40.471Z,17.80
2022-10-29T10:26:27.253Z,18.10
2022-10-29T10:29:04.568Z,18.10
2022-10-29T10:31:32.476Z,18.20
2022-10-29T10:34:00.298Z,18.20
2022-10-29T10:36:30.087Z,18.50
2022-10-29T10:38:59.397Z,18.80
2022-10-29T10:41:30.163Z,19.00
2022-10-29T10:44:01.424Z,19.40
2022-10-29T10:46:31.631Z,19.70
2022-10-29T10:49:00.588Z,20.10
2022-10-29T10:51:29.868Z,20.20
2022-10-29T10:53:58.095Z,20.20
2022-10-29T10:56:26.009Z,20.00
2022-10-29T10:58:58.120Z,19.80
2022-10-29T11:01:28.354Z,19.70
2022-10-29T11:04:00.100Z,19.60
2022-10-29T11:06:29.689Z,19.90
2022-10-29T11:08:59.102Z,20.40
2022-10-29T11:11:29.105Z,20.70
2022-10-29T11:14:00.449Z,21.40
2022-10-29T11:16:31.751Z,22.20
2022-10-29T11:19:01.270Z,23.10
2022-10-29T11:21:34.145Z,23.90
2022-10-29T11:24:05.099Z,24.50
2022-10-29T11:26:36.079Z,24.90
2022-10-29T11:29:09.970Z,25.00
2022-10-29T11:31:41.719Z,25.10
2022-10-29T11:34:14.019Z,24.90
2022-10-29T11:36:44.103Z,24.50
2022-10-29T11:39:13.769Z,24.40
2022-10-29T11:41:45.124Z,24.30
2022-10-29T11:44:15.370Z,23.90
2022-10-29T11:46:48.698Z,23.40
2022-10-29T11:49:24.320Z,23.10
2022-10-29T11:51:58.979Z,22.80
2022-10-29T11:54:34.931Z,22.60
2022-10-29T11:57:04.654Z,22.50
2022-10-29T11:59:39.085Z,22.40
2022-10-29T12:02:12.147Z,22.30
2022-10-29T12:04:42.243Z,22.30
2022-10-29T12:07:15.703Z,22.80
2022-10-29T12:10:03.727Z,24.50
2022-10-29T12:12:34.117Z,26.10
2022-10-29T12:15:08.649Z,27.20
2022-10-29T12:17:38.385Z,28.10
2022-10-29T12:20:12.527Z,28.70
2022-10-29T12:22:45.410Z,27.90
2022-10-29T12:25:20.097Z,26.90
2022-10-29T12:27:54.728Z,25.90
2022-10-29T12:30:24.895Z,25.20
2022-10-29T12:32:58.424Z,24.70
2022-10-29T12:35:29.613Z,24.40
2022-10-29T12:38:06.146Z,25.10
2022-10-29T12:40:35.795Z,26.20
2022-10-29T12:43:06.497Z,27.40
2022-10-29T12:45:48.056Z,28.50
2022-10-29T12:48:34.035Z,29.10
2022-10-29T12:51:04.834Z,29.30
2022-10-29T12:53:38.380Z,29.20
2022-10-29T12:56:09.774Z,28.50
2022-10-29T12:58:44.423Z,27.40
2022-10-29T13:01:50.112Z,26.60
2022-10-29T13:04:32.183Z,25.80
2022-10-29T13:07:04.960Z,25.10
2022-10-29T13:09:34.172Z,24.60
2022-10-29T13:12:03.300Z,24.30
2022-10-29T13:14:35.891Z,24.00
2022-10-29T13:17:05.014Z,23.80
2022-10-29T13:19:39.005Z,23.60
2022-10-29T13:22:28.031Z,23.50
2022-10-29T13:25:14.331Z,23.30
2022-10-29T13:27:42.184Z,23.20
2022-10-29T13:30:21.766Z,23.10
2022-10-29T13:32:49.586Z,23.00
2022-10-29T13:35:35.916Z,23.00
2022-10-29T13:38:17.528Z,23.00
2022-10-29T13:41:03.246Z,23.00
2022-10-29T13:43:32.940Z,23.00
2022-10-29T13:46:03.602Z,23.00
2022-10-29T13:48:33.300Z,23.00
2022-10-29T13:51:03.967Z,22.90
2022-10-29T13:53:36.431Z,22.90
2022-10-29T13:56:05.595Z,22.70
2022-10-29T13:58:35.545Z,22.60
2022-10-29T14:01:08.832Z,22.50
2022-10-29T14:03:40.798Z,22.40
2022-10-29T14:06:10.511Z,22.30
2022-10-29T14:08:42.111Z,22.20
2022-10-29T14:11:11.092Z,22.10
2022-10-29T14:13:43.009Z,22.10
2022-10-29T14:16:11.736Z,22.10
2022-10-29T14:18:40.288Z,22.10
2022-10-29T14:21:08.793Z,22.00
2022-10-29T14:23:36.640Z,22.10
2022-10-29T14:26:05.902Z,22.10
2022-10-29T14:28:34.443Z,22.10
2022-10-29T14:31:03.842Z,22.10
2022-10-29T14:33:32.682Z,22.40
2022-10-29T14:36:04.404Z,22.50
2022-10-29T14:38:35.041Z,22.70
2022-10-29T14:41:02.944Z,22.70
2022-10-29T14:43:32.145Z,22.70
2022-10-29T14:46:10.759Z,22.50
2022-10-29T14:48:38.904Z,22.40
2022-10-29T14:51:06.963Z,22.20
2022-10-29T14:53:36.333Z,22.00
2022-10-29T14:56:08.795Z,21.70
2022-10-29T14:58:38.334Z,21.40
2022-10-29T15:01:09.085Z,21.20
2022-10-29T15:03:37.110Z,20.90
2022-10-29T15:06:11.931Z,20.80
2022-10-29T15:08:40.742Z,20.60
2022-10-29T15:11:30.145Z,20.40
2022-10-29T15:13:59.450Z,20.20
2022-10-29T15:16:27.748Z,20.00
2022-10-29T15:18:56.098Z,19.80
2022-10-29T15:21:26.408Z,19.70
2022-10-29T15:23:55.962Z,19.50
2022-10-29T15:26:23.846Z,19.40
2022-10-29T15:28:52.770Z,19.20
2022-10-29T15:31:22.895Z,19.00
2022-10-29T15:33:51.976Z,18.90
2022-10-29T15:36:19.803Z,18.70
2022-10-29T15:39:14.525Z,18.60
2022-10-29T15:41:46.189Z,18.40
2022-10-29T15:44:33.570Z,18.30
2022-10-29T15:47:03.413Z,18.10
2022-10-29T15:49:32.597Z,18.00
2022-10-29T15:52:01.458Z,17.90
2022-10-29T15:54:29.584Z,17.80
2022-10-29T15:56:57.370Z,17.70
2022-10-29T15:59:26.725Z,17.50
2022-10-29T16:01:54.757Z,17.40
2022-10-29T16:04:24.516Z,17.30
2022-10-29T16:06:52.372Z,17.20
2022-10-29T16:09:21.184Z,17.10
2022-10-29T16:11:50.631Z,17.00
2022-10-29T16:14:18.570Z,16.90
2022-10-29T16:16:46.693Z,16.80
2022-10-29T16:19:14.491Z,16.70
2022-10-29T16:21:43.700Z,16.60
2022-10-29T16:24:14.201Z,16.60
2022-10-29T16:26:42.105Z,16.50
2022-10-29T16:29:09.986Z,16.40
2022-10-29T16:31:37.970Z,16.40
2022-10-29T16:34:07.610Z,16.30
2022-10-29T16:36:35.389Z,16.30
2022-10-29T16:39:04.618Z,16.20
2022-10-29T16:41:34.546Z,16.10
2022-10-29T16:44:02.407Z,16.00
2022-10-29T16:46:30.234Z,15.90
2022-10-29T16:48:58.037Z,15.90
2022-10-29T16:51:27.047Z,15.80
2022-10-29T16:53:54.798Z,15.70
2022-10-29T16:56:24.002Z,15.60
2022-10-29T16:58:51.814Z,15.50
2022-10-29T17:03:51.937Z,15.40
2022-10-29T17:06:19.810Z,15.30
2022-10-29T17:08:47.630Z,15.30
2022-10-29T17:11:15.456Z,15.20
2022-10-29T17:13:44.736Z,15.20
2022-10-29T17:16:14.667Z,15.10
2022-10-29T17:18:42.535Z,15.00
2022-10-29T17:21:10.344Z,15.00
2022-10-29T17:23:38.146Z,14.90
2022-10-29T17:26:06.108Z,14.90
2022-10-29T17:28:35.494Z,14.80
2022-10-29T17:31:06.839Z,14.70
2022-10-29T17:33:34.783Z,14.70
2022-10-29T17:36:03.495Z,14.70
2022-10-29T17:38:31.291Z,14.70
2022-10-29T17:40:59.198Z,14.60
2022-10-29T17:43:26.973Z,14.60
2022-10-29T17:45:54.757Z,14.60
2022-10-29T17:48:25.166Z,14.50
2022-10-29T17:50:54.793Z,14.50
2022-10-29T17:53:23.277Z,14.50
2022-10-29T17:55:51.102Z,14.40
2022-10-29T17:58:19.131Z,14.40
2022-10-29T18:00:48.207Z,14.30
2022-10-29T18:03:16.073Z,14.30
2022-10-29T18:05:45.261Z,14.30
2022-10-29T18:08:13.054Z,14.20
2022-10-29T18:10:40.904Z,14.20
2022-10-29T18:13:08.712Z,14.20
2022-10-29T18:15:36.481Z,14.10
2022-10-29T18:18:04.300Z,14.10
2022-10-29T18:20:32.124Z,14.10
2022-10-29T18:23:01.933Z,14.00
2022-10-29T18:25:30.058Z,14.00
2022-10-29T18:27:57.864Z,13.90
2022-10-29T18:30:25.673Z,13.90
2022-10-29T18:32:53.509Z,13.90
2022-10-29T18:35:21.355Z,13.80
2022-10-29T18:37:49.128Z,13.80
2022-10-29T18:40:18.379Z,13.70
2022-10-29T18:42:46.184Z,13.70
2022-10-29T18:45:14.002Z,13.70
2022-10-29T18:47:41.835Z,13.70
2022-10-29T18:50:10.967Z,13.70
2022-10-29T18:52:38.775Z,13.70
2022-10-29T18:55:07.116Z,13.60
2022-10-29T18:57:36.355Z,13.60
2022-10-29T19:00:04.796Z,13.60
2022-10-29T19:02:32.648Z,13.50
2022-10-29T19:05:00.511Z,13.50
2022-10-29T19:07:28.289Z,13.50
2022-10-29T19:09:56.105Z,13.40
2022-10-29T19:12:23.908Z,13.40
2022-10-29T19:14:53.404Z,13.40
2022-10-29T19:17:21.208Z,13.40
2022-10-29T19:19:49.017Z,13.30
2022-10-29T19:22:16.820Z,13.30
2022-10-29T19:24:44.608Z,13.20
2022-10-29T19:27:12.385Z,13.20
2022-10-29T19:29:40.190Z,13.20
2022-10-29T19:32:09.384Z,13.10
2022-10-29T19:37:07.111Z,13.10
2022-10-29T19:39:34.930Z,13.00
2022-10-29T19:42:02.718Z,13.00
2022-10-29T19:44:30.536Z,12.90
2022-10-29T19:46:58.632Z,12.90
2022-10-29T19:49:29.082Z,12.80
2022-10-29T19:51:57.490Z,12.80
2022-10-29T19:54:25.329Z,12.70
2022-10-29T19:56:54.665Z,12.70
2022-10-29T19:59:22.505Z,12.60
2022-10-29T20:01:50.409Z,12.60
2022-10-29T20:04:18.322Z,12.60
2022-10-29T20:06:48.255Z,12.50
2022-10-29T20:09:16.060Z,12.50
2022-10-29T20:11:43.843Z,12.40
2022-10-29T20:14:11.692Z,12.40
2022-10-29T20:16:40.424Z,12.40
2022-10-29T20:19:08.792Z,12.40
2022-10-29T20:21:36.599Z,12.30
2022-10-29T20:24:05.943Z,12.30
2022-10-29T20:26:33.747Z,12.30
2022-10-29T20:29:01.563Z,12.20
2022-10-29T20:31:32.210Z,12.10
2022-10-29T20:34:01.656Z,12.10
2022-10-29T20:36:30.682Z,12.00
2022-10-29T20:38:58.993Z,12.00
2022-10-29T20:41:28.739Z,11.90
2022-10-29T20:43:59.082Z,11.90
2022-10-29T20:46:27.277Z,11.90
2022-10-29T20:48:55.068Z,11.80
2022-10-29T20:51:23.755Z,11.80
2022-10-29T20:53:51.698Z,11.80
2022-10-29T20:56:22.020Z,11.70
2022-10-29T20:58:51.308Z,11.70
2022-10-29T21:01:20.061Z,11.60
2022-10-29T21:03:48.883Z,11.60
2022-10-29T21:06:17.551Z,11.50
2022-10-29T21:08:45.665Z,11.50
2022-10-29T21:11:14.121Z,11.50
2022-10-29T21:13:41.926Z,11.40
2022-10-29T21:16:13.814Z,11.40
2022-10-29T21:18:42.319Z,11.40
2022-10-29T21:21:10.247Z,11.40
2022-10-29T21:23:38.539Z,11.30
2022-10-29T21:26:06.445Z,11.40
2022-10-29T21:28:34.605Z,11.30
2022-10-29T21:31:02.422Z,11.30
2022-10-29T21:33:31.871Z,11.20
2022-10-29T21:35:59.726Z,11.20
2022-10-29T21:38:28.397Z,11.10
2022-10-29T21:40:56.314Z,11.10
2022-10-29T21:43:24.173Z,11.00
2022-10-29T21:45:52.498Z,11.00
2022-10-29T21:48:20.616Z,11.00
2022-10-29T21:50:49.793Z,11.00
2022-10-29T21:53:17.583Z,11.00
2022-10-29T21:55:45.808Z,11.00
2022-10-29T21:58:13.586Z,10.90
2022-10-29T22:00:41.401Z,10.90
2022-10-29T22:03:09.169Z,10.90
2022-10-29T22:05:36.991Z,10.90
2022-10-29T22:08:06.219Z,10.90
2022-10-29T22:10:34.360Z,10.80
2022-10-29T22:13:02.158Z,10.80
2022-10-29T22:15:29.960Z,10.80
2022-10-29T22:17:57.740Z,10.80
2022-10-29T22:20:25.559Z,10.80
2022-10-29T22:22:53.361Z,10.80
2022-10-29T22:25:22.545Z,10.70
2022-10-29T22:27:50.405Z,10.70
2022-10-29T22:30:18.278Z,10.70
2022-10-29T22:32:46.095Z,10.70
2022-10-29T22:35:13.893Z,10.70
2022-10-29T22:37:41.693Z,10.60
2022-10-29T22:40:10.234Z,10.60
2022-10-29T22:42:39.330Z,10.60
2022-10-29T22:45:07.782Z,10.60
2022-10-29T22:47:35.590Z,10.60
2022-10-29T22:50:03.372Z,10.60
2022-10-29T22:52:31.216Z,10.60
2022-10-29T22:54:59.023Z,10.60
2022-10-29T22:57:26.831Z,10.50
2022-10-29T22:59:56.026Z,10.50
2022-10-29T23:02:24.061Z,10.50
2022-10-29T23:04:51.967Z,10.50
2022-10-29T23:07:19.796Z,10.50
2022-10-29T23:09:47.702Z,10.40
2022-10-29T23:12:15.587Z,10.40
2022-10-29T23:14:43.416Z,10.40
2022-10-29T23:17:23.185Z,10.40
2022-10-29T23:19:56.074Z,10.40
2022-10-29T23:22:27.366Z,10.30
2022-10-29T23:24:55.753Z,10.30
2022-10-29T23:27:23.563Z,10.20
2022-10-29T23:29:51.346Z,10.20
2022-10-29T23:32:20.507Z,10.20
2022-10-29T23:34:48.287Z,10.20
2022-10-29T23:37:16.080Z,10.10
2022-10-29T23:39:43.861Z,10.10
2022-10-29T23:42:11.654Z,10.10
2022-10-29T23:44:39.445Z,10.00
2022-10-29T23:47:07.235Z,10.00
2022-10-29T23:49:36.353Z,10.00
2022-10-29T23:52:05.890Z,10.00
2022-10-29T23:54:33.703Z,10.00
2022-10-29T23:57:01.508Z,9.90
2022-10-29T23:59:29.295Z,9.90
